NowCast ZoneCast Warnings/Advisories Hourly Track Special Radar
Punta Gorda, Charlotte County Airport, United States  Lat: 26.92N, Lon: 81.99W
ICAO Used: KPGD
Current Conditions
Updated: 3:53 AM EST FRI NOV 28 2014
Sun & Moon Information:
Fair
Fair
Temp: 49°F
Humidity: 71%
Wind Speed: N12.7MPH G TO20.7(11MPH G TO18KT)
Barometer: 30.27 in.
Dewpoint: 40°F
Heat Index: 49°F
Wind Chill: 44°F
Civil Twilight: 6:31 AM EST Moon Phase:
First Quarter Moon
First Quarter Moon
Sunrise: 6:56 AM EST
Sunset: 5:33 PM EST
Civil Twilight: 5:58 PM EST
Forecast for Punta Gorda, Charlotte County Airport, FL, United States:
(Forecast based on TAF for )
0900 AM EST FRI NOV 28 2014
  
MORNING AFTERNOON EVENING OVERNIGHT
Clear Clear Partly Cloudy Partly Cloudy
Clear Clear Partly
Cloudy
Partly
Cloudy
TAF based forecast:
Dated: 0900 AM EST FRI NOV 28 2014
Morning...Turning clear with winds from the northeast at 14 mph.
Afternoon...Clear with winds from the northeast at 14 mph.
Evening...Clear with winds from the northeast at 14 mph. Turning partly cloudy with winds from the northeast at 8 mph.
Overnight...Partly cloudy with winds from the northeast at 8 mph.
Original Encoded TAF:
Dated: 0900 AM EST FRI NOV 28 2014
KPGD 280536Z 2806/2906 36009KT P6SM SKC 
     FM281400 03012KT P6SM SKC 
     FM282200 03007KT P6SM FEW250